Strona główna
METAR-TAF:

METAR-TAF

Lotnisko :

Seyresse

Dax, Francja

Szerokość geograficzna: 43-41N, Długość geograficzna: 001-04W, wysokość: 32 m

Aktualna obserwacja pogody

Raport powstał 19 minut temu, godzina 17:30 UTC
Wiatr 6 kt od południowy wschód
Temperatura 30°C
Wilgotność 46%
Ciśnienie 1008 hPa
Widzialność 10 km lub więcej

METAR: LFBY 251730Z AUTO 13006KT 9999 // ////// 30/17 Q1008

czas: 19:49 (17:49 UTC)


TAF: brakujący

Obserwacja i prognoza pogody dla ponad 4000 lotnisk (raport METAR i TAF).

Dostępne stacje oznaczono żółtymi i czerwonymi punktami na mapie.

Najedź kursorem aby zobaczyć nazwę stacji.

Kliknij aby zobaczyć obserwacje i prognozy pogody.

Aby zmienić mapę: kliknij na zielony przycisk z czarnym krzyżykiem, aby powiększyć; na zielony przycisk z myślnikiem, aby pomniejszyć; na zielone strzałki, aby przejść do map sąsiednich.


METAR-TAF: